sensor_id;sensor_type;location;lat;lon;timestamp;temperature;humidity
52203;DHT22;38173;52.850;6.970;2023-03-31T00:01:08;10.10;99.90
52203;DHT22;38173;52.850;6.970;2023-03-31T00:03:40;10.20;99.90
52203;DHT22;38173;52.850;6.970;2023-03-31T00:06:09;10.20;99.90
52203;DHT22;38173;52.850;6.970;2023-03-31T00:08:36;10.20;99.90
52203;DHT22;38173;52.850;6.970;2023-03-31T00:11:05;10.20;99.90
52203;DHT22;38173;52.850;6.970;2023-03-31T00:13:34;10.30;99.90
52203;DHT22;38173;52.850;6.970;2023-03-31T00:16:02;10.30;99.90
52203;DHT22;38173;52.850;6.970;2023-03-31T00:18:28;10.30;99.90
52203;DHT22;38173;52.850;6.970;2023-03-31T00:20:54;10.40;99.90
52203;DHT22;38173;52.850;6.970;2023-03-31T00:23:30;10.40;99.90
52203;DHT22;38173;52.850;6.970;2023-03-31T00:25:59;10.40;99.90
52203;DHT22;38173;52.850;6.970;2023-03-31T00:28:24;10.40;99.90
52203;DHT22;38173;52.850;6.970;2023-03-31T00:30:50;10.30;99.90
52203;DHT22;38173;52.850;6.970;2023-03-31T00:33:16;10.30;99.90
52203;DHT22;38173;52.850;6.970;2023-03-31T00:35:42;10.20;99.90
52203;DHT22;38173;52.850;6.970;2023-03-31T00:38:10;10.20;99.90
52203;DHT22;38173;52.850;6.970;2023-03-31T00:40:47;10.10;99.90
52203;DHT22;38173;52.850;6.970;2023-03-31T00:43:20;10.00;99.90
52203;DHT22;38173;52.850;6.970;2023-03-31T00:45:48;9.90;99.90
52203;DHT22;38173;52.850;6.970;2023-03-31T00:48:15;9.80;99.90
52203;DHT22;38173;52.850;6.970;2023-03-31T00:50:45;9.70;99.90
52203;DHT22;38173;52.850;6.970;2023-03-31T00:53:13;9.60;99.90
52203;DHT22;38173;52.850;6.970;2023-03-31T00:55:41;9.50;99.90
52203;DHT22;38173;52.850;6.970;2023-03-31T00:58:08;9.50;99.90
52203;DHT22;38173;52.850;6.970;2023-03-31T01:00:39;9.40;99.90
52203;DHT22;38173;52.850;6.970;2023-03-31T01:03:06;9.40;99.90
52203;DHT22;38173;52.850;6.970;2023-03-31T01:05:35;9.40;99.90
52203;DHT22;38173;52.850;6.970;2023-03-31T01:08:04;9.30;99.90
52203;DHT22;38173;52.850;6.970;2023-03-31T01:10:32;9.20;99.90
52203;DHT22;38173;52.850;6.970;2023-03-31T01:12:57;9.20;99.90
52203;DHT22;38173;52.850;6.970;2023-03-31T01:15:23;9.10;99.90
52203;DHT22;38173;52.850;6.970;2023-03-31T01:17:49;9.10;99.90
52203;DHT22;38173;52.850;6.970;2023-03-31T01:31:09;9.10;99.90
52203;DHT22;38173;52.850;6.970;2023-03-31T01:49:23;9.10;99.90
52203;DHT22;38173;52.850;6.970;2023-03-31T01:59:57;9.20;99.90
52203;DHT22;38173;52.850;6.970;2023-03-31T02:02:29;9.20;99.90
52203;DHT22;38173;52.850;6.970;2023-03-31T02:04:58;9.20;99.90
52203;DHT22;38173;52.850;6.970;2023-03-31T02:07:32;9.20;99.90
52203;DHT22;38173;52.850;6.970;2023-03-31T02:10:00;9.30;99.90
52203;DHT22;38173;52.850;6.970;2023-03-31T02:12:27;9.20;99.90
52203;DHT22;38173;52.850;6.970;2023-03-31T02:14:55;9.30;99.90
52203;DHT22;38173;52.850;6.970;2023-03-31T02:17:23;9.30;99.90
52203;DHT22;38173;52.850;6.970;2023-03-31T02:19:56;9.30;99.90
52203;DHT22;38173;52.850;6.970;2023-03-31T02:22:22;9.30;99.90
52203;DHT22;38173;52.850;6.970;2023-03-31T02:24:49;9.30;99.90
52203;DHT22;38173;52.850;6.970;2023-03-31T02:27:25;9.20;99.90
52203;DHT22;38173;52.850;6.970;2023-03-31T02:29:58;9.20;99.90
52203;DHT22;38173;52.850;6.970;2023-03-31T02:32:28;9.20;99.90
52203;DHT22;38173;52.850;6.970;2023-03-31T02:34:56;9.20;99.90
52203;DHT22;38173;52.850;6.970;2023-03-31T02:37:22;9.20;99.90
52203;DHT22;38173;52.850;6.970;2023-03-31T02:39:48;9.20;99.90
52203;DHT22;38173;52.850;6.970;2023-03-31T02:42:16;9.20;99.90
52203;DHT22;38173;52.850;6.970;2023-03-31T02:44:43;9.20;99.90
52203;DHT22;38173;52.850;6.970;2023-03-31T02:47:13;9.20;99.90
52203;DHT22;38173;52.850;6.970;2023-03-31T02:49:40;9.20;99.90
52203;DHT22;38173;52.850;6.970;2023-03-31T02:52:32;9.20;99.90
52203;DHT22;38173;52.850;6.970;2023-03-31T02:55:02;9.20;99.90
52203;DHT22;38173;52.850;6.970;2023-03-31T03:15:29;9.20;99.90
52203;DHT22;38173;52.850;6.970;2023-03-31T03:17:56;9.20;99.90
52203;DHT22;38173;52.850;6.970;2023-03-31T03:20:24;9.30;99.90
52203;DHT22;38173;52.850;6.970;2023-03-31T03:22:50;9.40;99.90
52203;DHT22;38173;52.850;6.970;2023-03-31T03:25:16;9.40;99.90
52203;DHT22;38173;52.850;6.970;2023-03-31T03:27:42;9.40;99.90
52203;DHT22;38173;52.850;6.970;2023-03-31T03:30:09;9.40;99.90
52203;DHT22;38173;52.850;6.970;2023-03-31T03:32:35;9.40;99.90
52203;DHT22;38173;52.850;6.970;2023-03-31T03:35:01;9.50;99.90
52203;DHT22;38173;52.850;6.970;2023-03-31T03:37:31;9.50;99.90
52203;DHT22;38173;52.850;6.970;2023-03-31T03:40:06;9.50;99.90
52203;DHT22;38173;52.850;6.970;2023-03-31T03:42:33;9.50;99.90
52203;DHT22;38173;52.850;6.970;2023-03-31T03:44:59;9.60;99.90
52203;DHT22;38173;52.850;6.970;2023-03-31T03:47:26;9.60;99.90
52203;DHT22;38173;52.850;6.970;2023-03-31T03:49:52;9.60;99.90
52203;DHT22;38173;52.850;6.970;2023-03-31T03:52:18;9.60;99.90
52203;DHT22;38173;52.850;6.970;2023-03-31T03:54:45;9.60;99.90
52203;DHT22;38173;52.850;6.970;2023-03-31T03:57:10;9.60;99.90
52203;DHT22;38173;52.850;6.970;2023-03-31T03:59:36;9.60;99.90
52203;DHT22;38173;52.850;6.970;2023-03-31T04:02:02;9.60;99.90
52203;DHT22;38173;52.850;6.970;2023-03-31T04:04:28;9.60;99.90
52203;DHT22;38173;52.850;6.970;2023-03-31T04:06:54;9.60;99.90
52203;DHT22;38173;52.850;6.970;2023-03-31T04:09:20;9.60;99.90
52203;DHT22;38173;52.850;6.970;2023-03-31T04:11:45;9.60;99.90
52203;DHT22;38173;52.850;6.970;2023-03-31T04:14:12;9.50;99.90
52203;DHT22;38173;52.850;6.970;2023-03-31T04:16:38;9.50;99.90
52203;DHT22;38173;52.850;6.970;2023-03-31T04:19:04;9.50;99.90
52203;DHT22;38173;52.850;6.970;2023-03-31T04:21:34;9.50;99.90
52203;DHT22;38173;52.850;6.970;2023-03-31T04:23:59;9.40;99.90
52203;DHT22;38173;52.850;6.970;2023-03-31T04:26:30;9.40;99.90
52203;DHT22;38173;52.850;6.970;2023-03-31T04:29:06;9.40;99.90
52203;DHT22;38173;52.850;6.970;2023-03-31T04:31:32;9.30;99.90
52203;DHT22;38173;52.850;6.970;2023-03-31T04:34:07;9.30;99.90
52203;DHT22;38173;52.850;6.970;2023-03-31T04:36:41;9.30;99.90
52203;DHT22;38173;52.850;6.970;2023-03-31T04:39:07;9.30;99.90
52203;DHT22;38173;52.850;6.970;2023-03-31T04:41:35;9.30;99.90
52203;DHT22;38173;52.850;6.970;2023-03-31T04:44:01;9.30;99.90
52203;DHT22;38173;52.850;6.970;2023-03-31T04:46:26;9.20;99.90
52203;DHT22;38173;52.850;6.970;2023-03-31T04:48:52;9.20;99.90
52203;DHT22;38173;52.850;6.970;2023-03-31T04:51:18;9.20;99.90
52203;DHT22;38173;52.850;6.970;2023-03-31T04:53:50;9.20;99.90
52203;DHT22;38173;52.850;6.970;2023-03-31T04:56:27;9.20;99.90
52203;DHT22;38173;52.850;6.970;2023-03-31T04:58:53;9.20;99.90
52203;DHT22;38173;52.850;6.970;2023-03-31T05:01:19;9.20;99.90
52203;DHT22;38173;52.850;6.970;2023-03-31T05:03:45;9.20;99.90
52203;DHT22;38173;52.850;6.970;2023-03-31T05:06:14;9.20;99.90
52203;DHT22;38173;52.850;6.970;2023-03-31T05:08:41;9.20;99.90
52203;DHT22;38173;52.850;6.970;2023-03-31T05:11:07;9.20;99.90
52203;DHT22;38173;52.850;6.970;2023-03-31T05:13:32;9.20;99.90
52203;DHT22;38173;52.850;6.970;2023-03-31T05:16:04;9.20;99.90
52203;DHT22;38173;52.850;6.970;2023-03-31T05:18:30;9.20;99.90
52203;DHT22;38173;52.850;6.970;2023-03-31T05:20:55;9.20;99.90
52203;DHT22;38173;52.850;6.970;2023-03-31T05:23:21;9.20;99.90
52203;DHT22;38173;52.850;6.970;2023-03-31T05:25:47;9.20;99.90
52203;DHT22;38173;52.850;6.970;2023-03-31T05:28:13;9.30;99.90
52203;DHT22;38173;52.850;6.970;2023-03-31T05:30:39;9.30;99.90
52203;DHT22;38173;52.850;6.970;2023-03-31T05:33:05;9.30;99.90
52203;DHT22;38173;52.850;6.970;2023-03-31T05:35:31;9.30;99.90
52203;DHT22;38173;52.850;6.970;2023-03-31T05:37:56;9.30;99.90
52203;DHT22;38173;52.850;6.970;2023-03-31T05:40:22;9.30;99.90
52203;DHT22;38173;52.850;6.970;2023-03-31T05:42:48;9.30;99.90
52203;DHT22;38173;52.850;6.970;2023-03-31T05:45:13;9.30;99.90
52203;DHT22;38173;52.850;6.970;2023-03-31T05:47:39;9.30;99.90
52203;DHT22;38173;52.850;6.970;2023-03-31T05:50:05;9.30;99.90
52203;DHT22;38173;52.850;6.970;2023-03-31T05:52:33;9.30;99.90
52203;DHT22;38173;52.850;6.970;2023-03-31T05:54:59;9.30;99.90
52203;DHT22;38173;52.850;6.970;2023-03-31T05:57:24;9.30;99.90
52203;DHT22;38173;52.850;6.970;2023-03-31T05:59:50;9.40;99.90
52203;DHT22;38173;52.850;6.970;2023-03-31T06:02:16;9.40;99.90
52203;DHT22;38173;52.850;6.970;2023-03-31T06:04:44;9.30;99.90
52203;DHT22;38173;52.850;6.970;2023-03-31T06:07:10;9.30;99.90
52203;DHT22;38173;52.850;6.970;2023-03-31T06:09:35;9.40;99.90
52203;DHT22;38173;52.850;6.970;2023-03-31T06:12:01;9.30;99.90
52203;DHT22;38173;52.850;6.970;2023-03-31T06:14:27;9.30;99.90
52203;DHT22;38173;52.850;6.970;2023-03-31T06:16:53;9.30;99.90
52203;DHT22;38173;52.850;6.970;2023-03-31T06:19:18;9.30;99.90
52203;DHT22;38173;52.850;6.970;2023-03-31T06:21:44;9.30;99.90
52203;DHT22;38173;52.850;6.970;2023-03-31T06:24:10;9.30;99.90
52203;DHT22;38173;52.850;6.970;2023-03-31T06:26:35;9.30;99.90
52203;DHT22;38173;52.850;6.970;2023-03-31T06:29:01;9.30;99.90
52203;DHT22;38173;52.850;6.970;2023-03-31T06:31:27;9.30;99.90
52203;DHT22;38173;52.850;6.970;2023-03-31T06:33:53;9.30;99.90
52203;DHT22;38173;52.850;6.970;2023-03-31T06:36:19;9.30;99.90
52203;DHT22;38173;52.850;6.970;2023-03-31T06:38:46;9.30;99.90
52203;DHT22;38173;52.850;6.970;2023-03-31T06:41:12;9.30;99.90
52203;DHT22;38173;52.850;6.970;2023-03-31T06:43:38;9.30;99.90
52203;DHT22;38173;52.850;6.970;2023-03-31T06:46:04;9.30;99.90
52203;DHT22;38173;52.850;6.970;2023-03-31T06:48:31;9.30;99.90
52203;DHT22;38173;52.850;6.970;2023-03-31T06:51:00;9.30;99.90
52203;DHT22;38173;52.850;6.970;2023-03-31T06:53:27;9.30;99.90
52203;DHT22;38173;52.850;6.970;2023-03-31T06:55:52;9.40;99.90
52203;DHT22;38173;52.850;6.970;2023-03-31T06:58:18;9.40;99.90
52203;DHT22;38173;52.850;6.970;2023-03-31T07:00:44;9.40;99.90
52203;DHT22;38173;52.850;6.970;2023-03-31T07:03:12;9.40;99.90
52203;DHT22;38173;52.850;6.970;2023-03-31T07:05:38;9.40;99.90
52203;DHT22;38173;52.850;6.970;2023-03-31T07:08:04;9.40;99.90
52203;DHT22;38173;52.850;6.970;2023-03-31T07:10:30;9.40;99.90
52203;DHT22;38173;52.850;6.970;2023-03-31T07:12:57;9.40;99.90
52203;DHT22;38173;52.850;6.970;2023-03-31T07:15:23;9.50;99.90
52203;DHT22;38173;52.850;6.970;2023-03-31T07:17:49;9.40;99.90
52203;DHT22;38173;52.850;6.970;2023-03-31T07:20:16;9.50;99.90
52203;DHT22;38173;52.850;6.970;2023-03-31T07:22:43;9.50;99.90
52203;DHT22;38173;52.850;6.970;2023-03-31T07:25:09;9.50;99.90
52203;DHT22;38173;52.850;6.970;2023-03-31T07:27:35;9.60;99.90
52203;DHT22;38173;52.850;6.970;2023-03-31T07:30:02;9.60;99.90
52203;DHT22;38173;52.850;6.970;2023-03-31T07:32:28;9.60;99.90
52203;DHT22;38173;52.850;6.970;2023-03-31T07:34:55;9.60;99.90
52203;DHT22;38173;52.850;6.970;2023-03-31T07:37:20;9.70;99.90
52203;DHT22;38173;52.850;6.970;2023-03-31T07:39:46;9.70;99.90
52203;DHT22;38173;52.850;6.970;2023-03-31T07:42:12;9.80;99.90
52203;DHT22;38173;52.850;6.970;2023-03-31T07:44:37;9.90;99.90
52203;DHT22;38173;52.850;6.970;2023-03-31T07:47:03;10.00;99.90
52203;DHT22;38173;52.850;6.970;2023-03-31T07:49:31;10.10;99.90
52203;DHT22;38173;52.850;6.970;2023-03-31T07:51:57;10.10;99.90
52203;DHT22;38173;52.850;6.970;2023-03-31T07:54:22;10.20;99.90
52203;DHT22;38173;52.850;6.970;2023-03-31T07:56:48;10.20;99.90
52203;DHT22;38173;52.850;6.970;2023-03-31T07:59:13;10.20;99.90
52203;DHT22;38173;52.850;6.970;2023-03-31T08:01:39;10.20;99.90
52203;DHT22;38173;52.850;6.970;2023-03-31T08:04:05;10.20;99.90
52203;DHT22;38173;52.850;6.970;2023-03-31T08:06:31;10.30;99.90
52203;DHT22;38173;52.850;6.970;2023-03-31T08:08:56;10.30;99.90
52203;DHT22;38173;52.850;6.970;2023-03-31T08:11:22;10.40;99.90
52203;DHT22;38173;52.850;6.970;2023-03-31T08:13:49;10.40;99.90
52203;DHT22;38173;52.850;6.970;2023-03-31T08:16:14;10.50;99.90
52203;DHT22;38173;52.850;6.970;2023-03-31T08:18:41;10.50;99.90
52203;DHT22;38173;52.850;6.970;2023-03-31T08:21:07;10.50;99.90
52203;DHT22;38173;52.850;6.970;2023-03-31T08:23:34;10.50;99.90
52203;DHT22;38173;52.850;6.970;2023-03-31T08:26:17;10.50;99.90
52203;DHT22;38173;52.850;6.970;2023-03-31T08:28:43;10.60;99.90
52203;DHT22;38173;52.850;6.970;2023-03-31T08:31:09;10.60;99.90
52203;DHT22;38173;52.850;6.970;2023-03-31T08:33:35;10.60;99.90
52203;DHT22;38173;52.850;6.970;2023-03-31T08:36:05;10.50;99.90
52203;DHT22;38173;52.850;6.970;2023-03-31T08:38:33;10.50;99.90
52203;DHT22;38173;52.850;6.970;2023-03-31T08:41:03;10.40;99.90
52203;DHT22;38173;52.850;6.970;2023-03-31T08:43:35;10.50;99.90
52203;DHT22;38173;52.850;6.970;2023-03-31T08:46:02;10.40;99.90
52203;DHT22;38173;52.850;6.970;2023-03-31T08:48:33;10.50;99.90
52203;DHT22;38173;52.850;6.970;2023-03-31T08:51:00;10.50;99.90
52203;DHT22;38173;52.850;6.970;2023-03-31T08:53:28;10.50;99.90
52203;DHT22;38173;52.850;6.970;2023-03-31T08:55:56;10.50;99.90
52203;DHT22;38173;52.850;6.970;2023-03-31T09:04:24;10.50;99.90
52203;DHT22;38173;52.850;6.970;2023-03-31T09:09:00;10.50;99.90
52203;DHT22;38173;52.850;6.970;2023-03-31T09:14:01;10.50;99.90
52203;DHT22;38173;52.850;6.970;2023-03-31T09:18:59;10.50;99.90
52203;DHT22;38173;52.850;6.970;2023-03-31T09:21:36;10.50;99.90
52203;DHT22;38173;52.850;6.970;2023-03-31T09:24:22;10.60;99.90
52203;DHT22;38173;52.850;6.970;2023-03-31T09:26:59;10.60;99.90
52203;DHT22;38173;52.850;6.970;2023-03-31T09:32:17;10.70;99.90
52203;DHT22;38173;52.850;6.970;2023-03-31T09:34:43;10.70;99.90
52203;DHT22;38173;52.850;6.970;2023-03-31T09:37:10;10.60;99.90
52203;DHT22;38173;52.850;6.970;2023-03-31T09:39:37;10.60;99.90
52203;DHT22;38173;52.850;6.970;2023-03-31T09:42:03;10.70;99.90
52203;DHT22;38173;52.850;6.970;2023-03-31T09:44:38;10.70;99.90
52203;DHT22;38173;52.850;6.970;2023-03-31T09:50:07;10.90;99.90
52203;DHT22;38173;52.850;6.970;2023-03-31T09:52:40;11.10;99.90
52203;DHT22;38173;52.850;6.970;2023-03-31T09:57:51;11.20;99.90
52203;DHT22;38173;52.850;6.970;2023-03-31T10:00:19;11.30;99.90
52203;DHT22;38173;52.850;6.970;2023-03-31T10:02:52;11.30;99.90
52203;DHT22;38173;52.850;6.970;2023-03-31T10:05:21;11.30;99.90
52203;DHT22;38173;52.850;6.970;2023-03-31T10:07:47;11.30;99.90
52203;DHT22;38173;52.850;6.970;2023-03-31T10:10:31;11.30;99.90
52203;DHT22;38173;52.850;6.970;2023-03-31T10:12:58;11.40;99.90
52203;DHT22;38173;52.850;6.970;2023-03-31T10:15:25;11.50;99.90
52203;DHT22;38173;52.850;6.970;2023-03-31T10:17:54;11.60;99.90
52203;DHT22;38173;52.850;6.970;2023-03-31T10:20:33;11.70;99.90
52203;DHT22;38173;52.850;6.970;2023-03-31T10:23:14;11.80;99.90
52203;DHT22;38173;52.850;6.970;2023-03-31T10:25:40;11.90;99.90
52203;DHT22;38173;52.850;6.970;2023-03-31T10:28:09;11.90;99.90
52203;DHT22;38173;52.850;6.970;2023-03-31T10:30:36;11.90;99.90
52203;DHT22;38173;52.850;6.970;2023-03-31T10:33:04;11.90;99.90
52203;DHT22;38173;52.850;6.970;2023-03-31T10:35:31;11.90;99.90
52203;DHT22;38173;52.850;6.970;2023-03-31T10:38:01;12.00;99.90
52203;DHT22;38173;52.850;6.970;2023-03-31T10:40:49;12.20;99.90
52203;DHT22;38173;52.850;6.970;2023-03-31T10:43:16;12.20;99.90
52203;DHT22;38173;52.850;6.970;2023-03-31T10:48:27;12.30;99.90
52203;DHT22;38173;52.850;6.970;2023-03-31T10:50:54;12.40;99.90
52203;DHT22;38173;52.850;6.970;2023-03-31T10:53:23;12.60;99.90
52203;DHT22;38173;52.850;6.970;2023-03-31T10:58:31;12.80;99.90
52203;DHT22;38173;52.850;6.970;2023-03-31T11:01:07;12.80;99.90
52203;DHT22;38173;52.850;6.970;2023-03-31T11:03:41;12.70;99.90
52203;DHT22;38173;52.850;6.970;2023-03-31T11:08:49;12.70;99.90
52203;DHT22;38173;52.850;6.970;2023-03-31T11:14:27;12.80;99.90
52203;DHT22;38173;52.850;6.970;2023-03-31T11:17:01;12.90;99.90
52203;DHT22;38173;52.850;6.970;2023-03-31T11:19:37;12.80;99.90
52203;DHT22;38173;52.850;6.970;2023-03-31T11:24:52;12.70;99.90
52203;DHT22;38173;52.850;6.970;2023-03-31T11:27:36;12.70;99.90
52203;DHT22;38173;52.850;6.970;2023-03-31T11:38:05;12.90;99.90
52203;DHT22;38173;52.850;6.970;2023-03-31T11:40:43;12.90;99.90
52203;DHT22;38173;52.850;6.970;2023-03-31T11:43:27;12.90;99.90
52203;DHT22;38173;52.850;6.970;2023-03-31T11:45:58;12.90;99.90
52203;DHT22;38173;52.850;6.970;2023-03-31T11:48:30;12.80;99.90
52203;DHT22;38173;52.850;6.970;2023-03-31T11:50:57;12.80;99.90
52203;DHT22;38173;52.850;6.970;2023-03-31T11:53:26;12.80;99.90
52203;DHT22;38173;52.850;6.970;2023-03-31T11:55:53;12.80;99.90
52203;DHT22;38173;52.850;6.970;2023-03-31T11:58:22;12.80;99.90
52203;DHT22;38173;52.850;6.970;2023-03-31T12:05:44;12.70;99.90
52203;DHT22;38173;52.850;6.970;2023-03-31T12:10:41;12.80;99.90
52203;DHT22;38173;52.850;6.970;2023-03-31T12:15:43;12.70;99.90
52203;DHT22;38173;52.850;6.970;2023-03-31T12:18:12;12.70;99.90
52203;DHT22;38173;52.850;6.970;2023-03-31T12:20:39;12.60;99.90
52203;DHT22;38173;52.850;6.970;2023-03-31T12:23:10;12.60;99.90
52203;DHT22;38173;52.850;6.970;2023-03-31T12:25:49;12.60;99.90
52203;DHT22;38173;52.850;6.970;2023-03-31T12:28:17;12.60;99.90
52203;DHT22;38173;52.850;6.970;2023-03-31T12:30:43;12.50;99.90
52203;DHT22;38173;52.850;6.970;2023-03-31T12:38:44;12.40;99.90
52203;DHT22;38173;52.850;6.970;2023-03-31T12:41:15;12.30;99.90
52203;DHT22;38173;52.850;6.970;2023-03-31T12:52:03;12.40;99.90
52203;DHT22;38173;52.850;6.970;2023-03-31T12:57:15;12.80;99.90
52203;DHT22;38173;52.850;6.970;2023-03-31T12:59:44;12.90;99.90
52203;DHT22;38173;52.850;6.970;2023-03-31T13:04:36;12.80;99.90
52203;DHT22;38173;52.850;6.970;2023-03-31T13:07:02;12.80;99.90
52203;DHT22;38173;52.850;6.970;2023-03-31T13:11:57;12.70;99.90
52203;DHT22;38173;52.850;6.970;2023-03-31T13:14:27;12.60;99.90
52203;DHT22;38173;52.850;6.970;2023-03-31T13:19:40;12.50;99.90
52203;DHT22;38173;52.850;6.970;2023-03-31T13:22:25;12.40;99.90
52203;DHT22;38173;52.850;6.970;2023-03-31T13:24:53;12.50;99.90
52203;DHT22;38173;52.850;6.970;2023-03-31T13:27:29;12.80;99.90
52203;DHT22;38173;52.850;6.970;2023-03-31T13:29:55;13.00;99.90
52203;DHT22;38173;52.850;6.970;2023-03-31T13:32:21;13.00;99.90
52203;DHT22;38173;52.850;6.970;2023-03-31T13:53:28;12.90;99.90
52203;DHT22;38173;52.850;6.970;2023-03-31T14:06:57;13.20;99.90
52203;DHT22;38173;52.850;6.970;2023-03-31T14:12:40;13.10;99.90
52203;DHT22;38173;52.850;6.970;2023-03-31T14:15:05;13.00;99.90
52203;DHT22;38173;52.850;6.970;2023-03-31T14:17:35;12.90;99.90
52203;DHT22;38173;52.850;6.970;2023-03-31T14:27:49;12.20;99.90
52203;DHT22;38173;52.850;6.970;2023-03-31T14:30:38;12.00;99.90
52203;DHT22;38173;52.850;6.970;2023-03-31T14:33:20;11.80;99.90
52203;DHT22;38173;52.850;6.970;2023-03-31T14:35:53;11.80;99.90
52203;DHT22;38173;52.850;6.970;2023-03-31T14:38:26;11.80;99.90
52203;DHT22;38173;52.850;6.970;2023-03-31T14:40:53;11.90;99.90
52203;DHT22;38173;52.850;6.970;2023-03-31T14:43:24;11.90;99.90
52203;DHT22;38173;52.850;6.970;2023-03-31T14:46:01;11.80;99.90
52203;DHT22;38173;52.850;6.970;2023-03-31T14:48:28;11.80;99.90
52203;DHT22;38173;52.850;6.970;2023-03-31T14:50:58;11.70;99.90
52203;DHT22;38173;52.850;6.970;2023-03-31T14:53:28;11.70;99.90
52203;DHT22;38173;52.850;6.970;2023-03-31T14:55:57;11.70;99.90
52203;DHT22;38173;52.850;6.970;2023-03-31T14:58:25;11.70;99.90
52203;DHT22;38173;52.850;6.970;2023-03-31T15:00:52;11.60;99.90
52203;DHT22;38173;52.850;6.970;2023-03-31T15:03:28;11.60;99.90
52203;DHT22;38173;52.850;6.970;2023-03-31T15:05:57;11.70;99.90
52203;DHT22;38173;52.850;6.970;2023-03-31T15:08:23;11.90;99.90
52203;DHT22;38173;52.850;6.970;2023-03-31T15:10:51;12.20;99.90
52203;DHT22;38173;52.850;6.970;2023-03-31T15:13:19;12.30;99.90
52203;DHT22;38173;52.850;6.970;2023-03-31T15:15:46;12.30;99.90
52203;DHT22;38173;52.850;6.970;2023-03-31T15:18:15;12.30;99.90
52203;DHT22;38173;52.850;6.970;2023-03-31T15:20:42;12.20;99.90
52203;DHT22;38173;52.850;6.970;2023-03-31T15:23:19;12.20;99.90
52203;DHT22;38173;52.850;6.970;2023-03-31T15:26:02;12.20;99.90
52203;DHT22;38173;52.850;6.970;2023-03-31T15:28:30;12.20;99.90
52203;DHT22;38173;52.850;6.970;2023-03-31T15:31:01;12.30;99.90
52203;DHT22;38173;52.850;6.970;2023-03-31T15:33:32;12.40;99.90
52203;DHT22;38173;52.850;6.970;2023-03-31T15:35:59;12.60;99.90
52203;DHT22;38173;52.850;6.970;2023-03-31T15:38:26;12.60;99.90
52203;DHT22;38173;52.850;6.970;2023-03-31T15:40:56;12.60;99.90
52203;DHT22;38173;52.850;6.970;2023-03-31T15:43:30;12.70;99.90
52203;DHT22;38173;52.850;6.970;2023-03-31T15:45:57;12.70;99.90
52203;DHT22;38173;52.850;6.970;2023-03-31T15:50:58;12.70;99.90
52203;DHT22;38173;52.850;6.970;2023-03-31T15:53:25;12.70;99.90
52203;DHT22;38173;52.850;6.970;2023-03-31T15:55:53;12.70;99.90
52203;DHT22;38173;52.850;6.970;2023-03-31T15:58:19;12.60;99.90
52203;DHT22;38173;52.850;6.970;2023-03-31T16:00:51;12.50;99.90
52203;DHT22;38173;52.850;6.970;2023-03-31T16:03:18;12.40;99.90
52203;DHT22;38173;52.850;6.970;2023-03-31T16:10:56;12.00;99.90
52203;DHT22;38173;52.850;6.970;2023-03-31T16:13:23;12.00;99.90
52203;DHT22;38173;52.850;6.970;2023-03-31T16:15:52;12.00;99.90
52203;DHT22;38173;52.850;6.970;2023-03-31T16:18:27;12.00;99.90
52203;DHT22;38173;52.850;6.970;2023-03-31T16:20:54;12.00;99.90
52203;DHT22;38173;52.850;6.970;2023-03-31T16:23:25;12.00;99.90
52203;DHT22;38173;52.850;6.970;2023-03-31T16:25:52;11.90;99.90
52203;DHT22;38173;52.850;6.970;2023-03-31T16:31:34;11.90;99.90
52203;DHT22;38173;52.850;6.970;2023-03-31T16:33:59;11.90;99.90
52203;DHT22;38173;52.850;6.970;2023-03-31T16:36:25;11.80;99.90
52203;DHT22;38173;52.850;6.970;2023-03-31T16:38:51;11.60;99.90
52203;DHT22;38173;52.850;6.970;2023-03-31T16:41:18;11.60;99.90
52203;DHT22;38173;52.850;6.970;2023-03-31T16:43:44;11.50;99.90
52203;DHT22;38173;52.850;6.970;2023-03-31T16:46:10;11.40;99.90
52203;DHT22;38173;52.850;6.970;2023-03-31T16:48:36;11.30;99.90
52203;DHT22;38173;52.850;6.970;2023-03-31T16:51:02;11.30;99.90
52203;DHT22;38173;52.850;6.970;2023-03-31T16:53:32;11.20;99.90
52203;DHT22;38173;52.850;6.970;2023-03-31T16:55:58;11.20;99.90
52203;DHT22;38173;52.850;6.970;2023-03-31T16:58:24;11.20;99.90
52203;DHT22;38173;52.850;6.970;2023-03-31T17:00:50;11.10;99.90
52203;DHT22;38173;52.850;6.970;2023-03-31T17:03:17;11.10;99.90
52203;DHT22;38173;52.850;6.970;2023-03-31T17:05:46;11.10;99.90
52203;DHT22;38173;52.850;6.970;2023-03-31T17:08:15;11.00;99.90
52203;DHT22;38173;52.850;6.970;2023-03-31T17:10:48;11.00;99.90
52203;DHT22;38173;52.850;6.970;2023-03-31T17:13:18;10.90;99.90
52203;DHT22;38173;52.850;6.970;2023-03-31T17:15:44;10.90;99.90
52203;DHT22;38173;52.850;6.970;2023-03-31T17:18:10;10.80;99.90
52203;DHT22;38173;52.850;6.970;2023-03-31T17:20:36;10.90;99.90
52203;DHT22;38173;52.850;6.970;2023-03-31T17:23:02;10.80;99.90
52203;DHT22;38173;52.850;6.970;2023-03-31T17:25:28;10.80;99.90
52203;DHT22;38173;52.850;6.970;2023-03-31T17:27:55;10.90;99.90
52203;DHT22;38173;52.850;6.970;2023-03-31T17:30:21;10.80;99.90
52203;DHT22;38173;52.850;6.970;2023-03-31T17:32:47;10.80;99.90
52203;DHT22;38173;52.850;6.970;2023-03-31T17:35:13;10.90;99.90
52203;DHT22;38173;52.850;6.970;2023-03-31T17:37:45;10.80;99.90
52203;DHT22;38173;52.850;6.970;2023-03-31T17:40:14;10.90;99.90
52203;DHT22;38173;52.850;6.970;2023-03-31T17:42:40;10.80;99.90
52203;DHT22;38173;52.850;6.970;2023-03-31T17:45:09;10.90;99.90
52203;DHT22;38173;52.850;6.970;2023-03-31T17:47:37;10.90;99.90
52203;DHT22;38173;52.850;6.970;2023-03-31T17:50:03;10.90;99.90
52203;DHT22;38173;52.850;6.970;2023-03-31T17:52:29;10.90;99.90
52203;DHT22;38173;52.850;6.970;2023-03-31T17:54:55;10.90;99.90
52203;DHT22;38173;52.850;6.970;2023-03-31T17:57:22;10.90;99.90
52203;DHT22;38173;52.850;6.970;2023-03-31T17:59:48;10.80;99.90
52203;DHT22;38173;52.850;6.970;2023-03-31T18:02:14;10.80;99.90
52203;DHT22;38173;52.850;6.970;2023-03-31T18:04:40;10.80;99.90
52203;DHT22;38173;52.850;6.970;2023-03-31T18:07:06;10.80;99.90
52203;DHT22;38173;52.850;6.970;2023-03-31T18:09:33;10.70;99.90
52203;DHT22;38173;52.850;6.970;2023-03-31T18:11:58;10.70;99.90
52203;DHT22;38173;52.850;6.970;2023-03-31T18:14:24;10.70;99.90
52203;DHT22;38173;52.850;6.970;2023-03-31T18:16:50;10.70;99.90
52203;DHT22;38173;52.850;6.970;2023-03-31T18:19:16;10.60;99.90
52203;DHT22;38173;52.850;6.970;2023-03-31T18:21:41;10.60;99.90
52203;DHT22;38173;52.850;6.970;2023-03-31T18:24:07;10.60;99.90
52203;DHT22;38173;52.850;6.970;2023-03-31T18:26:33;10.60;99.90
52203;DHT22;38173;52.850;6.970;2023-03-31T18:28:58;10.60;99.90
52203;DHT22;38173;52.850;6.970;2023-03-31T18:31:24;10.50;99.90
52203;DHT22;38173;52.850;6.970;2023-03-31T18:33:59;10.50;99.90
52203;DHT22;38173;52.850;6.970;2023-03-31T18:36:31;10.50;99.90
52203;DHT22;38173;52.850;6.970;2023-03-31T18:39:08;10.50;99.90
52203;DHT22;38173;52.850;6.970;2023-03-31T18:41:33;10.50;99.90
52203;DHT22;38173;52.850;6.970;2023-03-31T18:43:59;10.50;99.90
52203;DHT22;38173;52.850;6.970;2023-03-31T18:46:26;10.40;99.90